Japi, Brazil
Current Conditions -  °F | °C
As of 9:00 AM on Thursday 29 Jan 2015 (Local Time) from SBKG Reporting Station
Rain Showers Rain Showers  
Wind Chill: 79°   Ceiling: 2300
Heat Index: 81°   Visibility: 6mi
Dew Point: 68°   Wind: 12mph
Humidity: 69%   Direction: 100°E
Pressure: 29.97"   Gusts: NA
Location:  6.45°S, 35.93°W
Report Text: SBKG 291200Z 10010KT 070V140 9999 VCSH BKN023 26/20 Q1015
Loading
Personal Weather Stations






























Interactive Weather Map New forecast layout! Learn more

10-Day Weather Forecast

Advertisements
Track Severe Weather on mobile